Airfield :
LOGIN :

Register | Disclaimer

   EN    FR    IT 

 










Legend :    VFR   Marginal VFR   IFR   Intensive IFR   Very Intensive IFR
Visi :
Ceiling :
>= 8 km
>= 3000ft
5 to 8 km
1000 to 3000 ft
1500m to 5 km
500 to 1000 ft
800 to 1500m
200 to 500 ft
< 800m
< 200 ft
Symbols :   Thunderstorms  Fog  Heavy snow  Heavy precipitations  Wind > 20 kt
SIGMETs :     Misc.  Thunderstorms  Icing  Turbulence  Mountain Waves  Volcanic Ashes






- Airport Elevation : 607 ft
- IATA code : BCM


LRBC - Bacău

CURRENT METAR :
  • 281530Z 16007KT 8000 NSC 06/02 Q1008

EXPIRED METARs :
  • 281500Z 17006KT CAVOK 07/02 Q1008
  • 281430Z 15007KT CAVOK 08/02 Q1008
  • 281400Z 18007KT 160V230 CAVOK 09/03 Q1008
  • 281330Z 19007KT CAVOK 10/03 Q1008
  • 281300Z 17006KT CAVOK 11/03 Q1008

TAF TAF LRBC
Valid from the 28 at 15:00 until the 29 at 00:00 UTC


281400Z 2815/2824 17006KT CAVOK
BECMG 2817/2819 5000 BR BKN010
BECMG 2819/2821 3000 BR BKN005
TEMPO 2821/2824 0800 FG BKN002



MET'MAP, your aeronautical weather chart ! - Copyright ORBIFLY December 2007 - Disclaimer

ORBIFLY MET'MAP TEAM :

Programming & Development : Alexandra Zaïnal
Concept & original design : Baudouin d'Aumeries
Assistance for programming : Marc-Olivier Méhu
Technical & hardware support : Manuel Goepfert

Contact : metmap@orbifly.com




SOURCES & CREDITS :

   NOAA